sensor_id;sensor_type;location;lat;lon;timestamp;temperature;humidity
44886;DHT22;36669;51.428;21.162;2023-01-01T00:01:56;13.60;99.90
44886;DHT22;36669;51.428;21.162;2023-01-01T00:04:24;13.50;99.90
44886;DHT22;36669;51.428;21.162;2023-01-01T00:06:51;13.60;99.90
44886;DHT22;36669;51.428;21.162;2023-01-01T00:09:17;13.50;99.90
44886;DHT22;36669;51.428;21.162;2023-01-01T00:12:03;13.60;99.90
44886;DHT22;36669;51.428;21.162;2023-01-01T00:14:30;13.60;99.90
44886;DHT22;36669;51.428;21.162;2023-01-01T00:16:57;13.60;99.90
44886;DHT22;36669;51.428;21.162;2023-01-01T00:19:24;13.60;99.90
44886;DHT22;36669;51.428;21.162;2023-01-01T00:21:51;13.70;99.90
44886;DHT22;36669;51.428;21.162;2023-01-01T00:24:18;13.70;99.90
44886;DHT22;36669;51.428;21.162;2023-01-01T00:26:45;13.60;99.90
44886;DHT22;36669;51.428;21.162;2023-01-01T00:29:12;13.70;99.90
44886;DHT22;36669;51.428;21.162;2023-01-01T00:31:41;13.60;99.90
44886;DHT22;36669;51.428;21.162;2023-01-01T00:34:09;13.60;99.90
44886;DHT22;36669;51.428;21.162;2023-01-01T00:36:36;13.60;99.90
44886;DHT22;36669;51.428;21.162;2023-01-01T00:39:03;13.70;99.90
44886;DHT22;36669;51.428;21.162;2023-01-01T00:41:31;13.70;99.90
44886;DHT22;36669;51.428;21.162;2023-01-01T00:43:58;13.70;99.90
44886;DHT22;36669;51.428;21.162;2023-01-01T00:46:24;13.60;99.90
44886;DHT22;36669;51.428;21.162;2023-01-01T00:48:52;13.60;99.90
44886;DHT22;36669;51.428;21.162;2023-01-01T00:51:19;13.70;99.90
44886;DHT22;36669;51.428;21.162;2023-01-01T00:53:46;13.70;99.90
44886;DHT22;36669;51.428;21.162;2023-01-01T00:56:13;13.60;99.90
44886;DHT22;36669;51.428;21.162;2023-01-01T00:58:40;13.70;99.90
44886;DHT22;36669;51.428;21.162;2023-01-01T01:01:08;13.60;99.90
44886;DHT22;36669;51.428;21.162;2023-01-01T01:03:38;13.60;99.90
44886;DHT22;36669;51.428;21.162;2023-01-01T01:06:10;13.60;99.90
44886;DHT22;36669;51.428;21.162;2023-01-01T01:08:39;13.60;99.90
44886;DHT22;36669;51.428;21.162;2023-01-01T01:11:34;13.60;99.90
44886;DHT22;36669;51.428;21.162;2023-01-01T01:14:02;13.60;99.90
44886;DHT22;36669;51.428;21.162;2023-01-01T01:16:33;13.50;99.90
44886;DHT22;36669;51.428;21.162;2023-01-01T01:19:01;13.50;99.90
44886;DHT22;36669;51.428;21.162;2023-01-01T01:21:29;13.50;99.90
44886;DHT22;36669;51.428;21.162;2023-01-01T01:24:01;13.60;99.90
44886;DHT22;36669;51.428;21.162;2023-01-01T01:26:32;13.50;99.90
44886;DHT22;36669;51.428;21.162;2023-01-01T01:28:59;13.50;99.90
44886;DHT22;36669;51.428;21.162;2023-01-01T01:31:31;13.50;99.90
44886;DHT22;36669;51.428;21.162;2023-01-01T01:33:57;13.50;99.90
44886;DHT22;36669;51.428;21.162;2023-01-01T01:36:24;13.50;99.90
44886;DHT22;36669;51.428;21.162;2023-01-01T01:38:50;13.50;99.90
44886;DHT22;36669;51.428;21.162;2023-01-01T01:41:21;13.50;99.90
44886;DHT22;36669;51.428;21.162;2023-01-01T01:44:02;13.60;99.90
44886;DHT22;36669;51.428;21.162;2023-01-01T01:46:40;13.60;99.90
44886;DHT22;36669;51.428;21.162;2023-01-01T01:49:20;13.60;99.90
44886;DHT22;36669;51.428;21.162;2023-01-01T01:51:48;13.70;99.90
44886;DHT22;36669;51.428;21.162;2023-01-01T01:54:20;13.70;99.90
44886;DHT22;36669;51.428;21.162;2023-01-01T01:56:56;13.70;99.90
44886;DHT22;36669;51.428;21.162;2023-01-01T01:59:28;13.80;99.90
44886;DHT22;36669;51.428;21.162;2023-01-01T02:01:57;13.70;99.90
44886;DHT22;36669;51.428;21.162;2023-01-01T02:04:24;13.80;99.90
44886;DHT22;36669;51.428;21.162;2023-01-01T02:06:51;13.90;99.90
44886;DHT22;36669;51.428;21.162;2023-01-01T02:09:19;14.00;99.90
44886;DHT22;36669;51.428;21.162;2023-01-01T02:11:46;14.10;99.90
44886;DHT22;36669;51.428;21.162;2023-01-01T02:14:13;14.10;99.90
44886;DHT22;36669;51.428;21.162;2023-01-01T02:16:56;14.20;99.90
44886;DHT22;36669;51.428;21.162;2023-01-01T02:22:55;14.20;99.90
44886;DHT22;36669;51.428;21.162;2023-01-01T02:31:49;14.20;99.90
44886;DHT22;36669;51.428;21.162;2023-01-01T02:34:20;14.20;99.90
44886;DHT22;36669;51.428;21.162;2023-01-01T02:36:51;14.10;99.90
44886;DHT22;36669;51.428;21.162;2023-01-01T02:39:21;14.20;99.90
44886;DHT22;36669;51.428;21.162;2023-01-01T02:41:53;14.20;99.90
44886;DHT22;36669;51.428;21.162;2023-01-01T02:44:24;14.30;99.90
44886;DHT22;36669;51.428;21.162;2023-01-01T02:46:51;14.30;99.90
44886;DHT22;36669;51.428;21.162;2023-01-01T02:49:20;14.30;99.90
44886;DHT22;36669;51.428;21.162;2023-01-01T02:52:14;14.40;99.90
44886;DHT22;36669;51.428;21.162;2023-01-01T02:55:45;14.50;99.90
44886;DHT22;36669;51.428;21.162;2023-01-01T03:01:12;14.60;99.90
44886;DHT22;36669;51.428;21.162;2023-01-01T03:04:06;14.80;99.90
44886;DHT22;36669;51.428;21.162;2023-01-01T03:06:38;14.80;99.90
44886;DHT22;36669;51.428;21.162;2023-01-01T03:19:51;15.20;99.90
44886;DHT22;36669;51.428;21.162;2023-01-01T03:22:23;15.20;99.90
44886;DHT22;36669;51.428;21.162;2023-01-01T03:25:00;15.20;99.90
44886;DHT22;36669;51.428;21.162;2023-01-01T03:27:45;15.20;99.90
44886;DHT22;36669;51.428;21.162;2023-01-01T03:30:17;15.20;99.90
44886;DHT22;36669;51.428;21.162;2023-01-01T03:33:06;15.20;99.90
44886;DHT22;36669;51.428;21.162;2023-01-01T03:35:53;15.20;99.90
44886;DHT22;36669;51.428;21.162;2023-01-01T03:38:33;15.20;99.90
44886;DHT22;36669;51.428;21.162;2023-01-01T03:41:10;15.30;99.90
44886;DHT22;36669;51.428;21.162;2023-01-01T03:44:14;15.30;99.90
44886;DHT22;36669;51.428;21.162;2023-01-01T03:46:46;15.30;99.90
44886;DHT22;36669;51.428;21.162;2023-01-01T03:49:13;15.30;99.90
44886;DHT22;36669;51.428;21.162;2023-01-01T04:00:33;15.40;99.90
44886;DHT22;36669;51.428;21.162;2023-01-01T04:03:03;15.50;99.90
44886;DHT22;36669;51.428;21.162;2023-01-01T04:05:39;15.50;99.90
44886;DHT22;36669;51.428;21.162;2023-01-01T04:08:07;15.50;99.90
44886;DHT22;36669;51.428;21.162;2023-01-01T04:10:40;15.40;99.90
44886;DHT22;36669;51.428;21.162;2023-01-01T04:13:08;15.40;99.90
44886;DHT22;36669;51.428;21.162;2023-01-01T04:15:36;15.40;99.90
44886;DHT22;36669;51.428;21.162;2023-01-01T04:18:06;15.30;99.90
44886;DHT22;36669;51.428;21.162;2023-01-01T04:20:34;15.30;99.90
44886;DHT22;36669;51.428;21.162;2023-01-01T04:23:04;15.30;99.90
44886;DHT22;36669;51.428;21.162;2023-01-01T04:25:32;15.20;99.90
44886;DHT22;36669;51.428;21.162;2023-01-01T04:27:59;15.30;99.90
44886;DHT22;36669;51.428;21.162;2023-01-01T04:30:30;15.20;99.90
44886;DHT22;36669;51.428;21.162;2023-01-01T04:32:56;15.20;99.90
44886;DHT22;36669;51.428;21.162;2023-01-01T04:35:22;15.20;99.90
44886;DHT22;36669;51.428;21.162;2023-01-01T04:37:49;15.20;99.90
44886;DHT22;36669;51.428;21.162;2023-01-01T04:40:16;15.10;99.90
44886;DHT22;36669;51.428;21.162;2023-01-01T04:42:45;15.10;99.90
44886;DHT22;36669;51.428;21.162;2023-01-01T04:45:11;15.10;99.90
44886;DHT22;36669;51.428;21.162;2023-01-01T04:47:39;15.10;99.90
44886;DHT22;36669;51.428;21.162;2023-01-01T04:50:06;15.00;99.90
44886;DHT22;36669;51.428;21.162;2023-01-01T04:52:34;15.10;99.90
44886;DHT22;36669;51.428;21.162;2023-01-01T04:55:01;15.00;99.90
44886;DHT22;36669;51.428;21.162;2023-01-01T04:57:30;15.00;99.90
44886;DHT22;36669;51.428;21.162;2023-01-01T04:59:57;15.00;99.90
44886;DHT22;36669;51.428;21.162;2023-01-01T05:02:24;15.00;99.90
44886;DHT22;36669;51.428;21.162;2023-01-01T05:04:51;15.00;99.90
44886;DHT22;36669;51.428;21.162;2023-01-01T05:07:18;15.10;99.90
44886;DHT22;36669;51.428;21.162;2023-01-01T05:09:44;15.10;99.90
44886;DHT22;36669;51.428;21.162;2023-01-01T05:12:11;15.10;99.90
44886;DHT22;36669;51.428;21.162;2023-01-01T05:14:38;15.10;99.90
44886;DHT22;36669;51.428;21.162;2023-01-01T05:17:05;15.10;99.90
44886;DHT22;36669;51.428;21.162;2023-01-01T05:19:31;15.10;99.90
44886;DHT22;36669;51.428;21.162;2023-01-01T05:21:56;15.00;99.90
44886;DHT22;36669;51.428;21.162;2023-01-01T05:24:22;15.10;99.90
44886;DHT22;36669;51.428;21.162;2023-01-01T05:26:49;15.00;99.90
44886;DHT22;36669;51.428;21.162;2023-01-01T05:29:17;15.00;99.90
44886;DHT22;36669;51.428;21.162;2023-01-01T05:31:44;15.00;99.90
44886;DHT22;36669;51.428;21.162;2023-01-01T05:34:13;15.10;99.90
44886;DHT22;36669;51.428;21.162;2023-01-01T05:36:40;15.10;99.90
44886;DHT22;36669;51.428;21.162;2023-01-01T05:39:07;15.20;99.90
44886;DHT22;36669;51.428;21.162;2023-01-01T05:41:34;15.20;99.90
44886;DHT22;36669;51.428;21.162;2023-01-01T05:44:08;15.10;99.90
44886;DHT22;36669;51.428;21.162;2023-01-01T05:46:38;15.20;99.90
44886;DHT22;36669;51.428;21.162;2023-01-01T05:49:03;15.20;99.90
44886;DHT22;36669;51.428;21.162;2023-01-01T05:51:29;15.30;99.90
44886;DHT22;36669;51.428;21.162;2023-01-01T05:53:57;15.30;99.90
44886;DHT22;36669;51.428;21.162;2023-01-01T05:56:24;15.30;99.90
44886;DHT22;36669;51.428;21.162;2023-01-01T05:58:51;15.30;99.90
44886;DHT22;36669;51.428;21.162;2023-01-01T06:01:27;15.20;99.90
44886;DHT22;36669;51.428;21.162;2023-01-01T06:03:56;15.30;99.90
44886;DHT22;36669;51.428;21.162;2023-01-01T06:06:24;15.30;99.90
44886;DHT22;36669;51.428;21.162;2023-01-01T06:09:02;15.30;99.90
44886;DHT22;36669;51.428;21.162;2023-01-01T06:11:30;15.30;99.90
44886;DHT22;36669;51.428;21.162;2023-01-01T06:14:01;15.20;99.90
44886;DHT22;36669;51.428;21.162;2023-01-01T06:16:31;15.20;99.90
44886;DHT22;36669;51.428;21.162;2023-01-01T06:18:58;15.20;99.90
44886;DHT22;36669;51.428;21.162;2023-01-01T06:21:26;15.30;99.90
44886;DHT22;36669;51.428;21.162;2023-01-01T06:23:57;15.30;99.90
44886;DHT22;36669;51.428;21.162;2023-01-01T06:26:31;15.30;99.90
44886;DHT22;36669;51.428;21.162;2023-01-01T06:28:58;15.20;99.90
44886;DHT22;36669;51.428;21.162;2023-01-01T06:31:25;15.20;99.90
44886;DHT22;36669;51.428;21.162;2023-01-01T06:33:52;15.20;99.90
44886;DHT22;36669;51.428;21.162;2023-01-01T06:36:24;15.20;99.90
44886;DHT22;36669;51.428;21.162;2023-01-01T06:38:53;15.20;99.90
44886;DHT22;36669;51.428;21.162;2023-01-01T06:41:27;15.20;99.90
44886;DHT22;36669;51.428;21.162;2023-01-01T06:43:57;15.10;99.90
44886;DHT22;36669;51.428;21.162;2023-01-01T06:46:32;15.10;99.90
44886;DHT22;36669;51.428;21.162;2023-01-01T06:49:05;15.00;99.90
44886;DHT22;36669;51.428;21.162;2023-01-01T06:51:42;15.00;99.90
44886;DHT22;36669;51.428;21.162;2023-01-01T06:54:10;15.00;99.90
44886;DHT22;36669;51.428;21.162;2023-01-01T06:56:36;15.10;99.90
44886;DHT22;36669;51.428;21.162;2023-01-01T06:59:04;15.00;99.90
44886;DHT22;36669;51.428;21.162;2023-01-01T07:01:33;15.00;99.90
44886;DHT22;36669;51.428;21.162;2023-01-01T07:04:06;14.90;99.90
44886;DHT22;36669;51.428;21.162;2023-01-01T07:06:33;14.90;99.90
44886;DHT22;36669;51.428;21.162;2023-01-01T07:09:01;14.90;99.90
44886;DHT22;36669;51.428;21.162;2023-01-01T07:11:27;14.80;99.90
44886;DHT22;36669;51.428;21.162;2023-01-01T07:13:54;14.80;99.90
44886;DHT22;36669;51.428;21.162;2023-01-01T07:16:21;14.80;99.90
44886;DHT22;36669;51.428;21.162;2023-01-01T07:18:47;14.80;99.90
44886;DHT22;36669;51.428;21.162;2023-01-01T07:21:43;14.70;99.90
44886;DHT22;36669;51.428;21.162;2023-01-01T07:24:23;14.70;99.90
44886;DHT22;36669;51.428;21.162;2023-01-01T07:26:53;14.60;99.90
44886;DHT22;36669;51.428;21.162;2023-01-01T07:29:21;14.60;99.90
44886;DHT22;36669;51.428;21.162;2023-01-01T07:31:48;14.60;99.90
44886;DHT22;36669;51.428;21.162;2023-01-01T07:34:16;14.50;99.90
44886;DHT22;36669;51.428;21.162;2023-01-01T07:36:45;14.50;99.90
44886;DHT22;36669;51.428;21.162;2023-01-01T07:39:13;14.40;99.90
44886;DHT22;36669;51.428;21.162;2023-01-01T07:41:41;14.50;99.90
44886;DHT22;36669;51.428;21.162;2023-01-01T07:44:08;14.40;99.90
44886;DHT22;36669;51.428;21.162;2023-01-01T07:46:36;14.40;99.90
44886;DHT22;36669;51.428;21.162;2023-01-01T07:49:02;14.40;99.90
44886;DHT22;36669;51.428;21.162;2023-01-01T07:51:29;14.40;99.90
44886;DHT22;36669;51.428;21.162;2023-01-01T07:53:56;14.40;99.90
44886;DHT22;36669;51.428;21.162;2023-01-01T07:56:23;14.50;99.90
44886;DHT22;36669;51.428;21.162;2023-01-01T07:58:51;14.50;99.90
44886;DHT22;36669;51.428;21.162;2023-01-01T08:01:18;14.50;99.90
44886;DHT22;36669;51.428;21.162;2023-01-01T08:03:43;14.50;99.90
44886;DHT22;36669;51.428;21.162;2023-01-01T08:06:11;14.60;99.90
44886;DHT22;36669;51.428;21.162;2023-01-01T08:08:39;14.60;99.90
44886;DHT22;36669;51.428;21.162;2023-01-01T08:11:07;14.70;99.90
44886;DHT22;36669;51.428;21.162;2023-01-01T08:13:36;14.70;99.90
44886;DHT22;36669;51.428;21.162;2023-01-01T08:16:03;14.70;99.90
44886;DHT22;36669;51.428;21.162;2023-01-01T08:18:30;14.70;99.90
44886;DHT22;36669;51.428;21.162;2023-01-01T08:20:56;14.80;99.90
44886;DHT22;36669;51.428;21.162;2023-01-01T08:23:24;14.70;99.90
44886;DHT22;36669;51.428;21.162;2023-01-01T08:25:51;14.80;99.90
44886;DHT22;36669;51.428;21.162;2023-01-01T08:28:19;14.90;99.90
44886;DHT22;36669;51.428;21.162;2023-01-01T08:30:45;14.90;99.90
44886;DHT22;36669;51.428;21.162;2023-01-01T08:33:11;15.00;99.90
44886;DHT22;36669;51.428;21.162;2023-01-01T08:35:39;15.00;99.90
44886;DHT22;36669;51.428;21.162;2023-01-01T08:38:10;15.10;99.90
44886;DHT22;36669;51.428;21.162;2023-01-01T08:40:37;15.20;99.90
44886;DHT22;36669;51.428;21.162;2023-01-01T08:43:04;15.20;99.90
44886;DHT22;36669;51.428;21.162;2023-01-01T08:45:31;15.30;99.90
44886;DHT22;36669;51.428;21.162;2023-01-01T08:47:58;15.30;99.90
44886;DHT22;36669;51.428;21.162;2023-01-01T08:50:25;15.40;99.90
44886;DHT22;36669;51.428;21.162;2023-01-01T08:52:51;15.40;99.90
44886;DHT22;36669;51.428;21.162;2023-01-01T08:55:18;15.50;99.90
44886;DHT22;36669;51.428;21.162;2023-01-01T08:57:45;15.50;99.90
44886;DHT22;36669;51.428;21.162;2023-01-01T09:00:12;15.60;99.90
44886;DHT22;36669;51.428;21.162;2023-01-01T09:02:41;15.60;99.90
44886;DHT22;36669;51.428;21.162;2023-01-01T09:05:10;15.60;99.90
44886;DHT22;36669;51.428;21.162;2023-01-01T09:07:39;15.70;99.90
44886;DHT22;36669;51.428;21.162;2023-01-01T09:10:05;15.70;99.90
44886;DHT22;36669;51.428;21.162;2023-01-01T09:12:30;15.70;99.90
44886;DHT22;36669;51.428;21.162;2023-01-01T09:14:56;15.80;99.90
44886;DHT22;36669;51.428;21.162;2023-01-01T09:17:23;15.80;99.90
44886;DHT22;36669;51.428;21.162;2023-01-01T09:19:49;15.90;99.90
44886;DHT22;36669;51.428;21.162;2023-01-01T09:22:15;16.00;99.90
44886;DHT22;36669;51.428;21.162;2023-01-01T09:24:42;16.00;99.90
44886;DHT22;36669;51.428;21.162;2023-01-01T09:27:12;16.10;99.90
44886;DHT22;36669;51.428;21.162;2023-01-01T09:29:40;16.20;99.90
44886;DHT22;36669;51.428;21.162;2023-01-01T09:32:08;16.20;99.90
44886;DHT22;36669;51.428;21.162;2023-01-01T09:34:35;16.30;99.90
44886;DHT22;36669;51.428;21.162;2023-01-01T09:37:01;16.40;99.90
44886;DHT22;36669;51.428;21.162;2023-01-01T09:39:27;16.40;99.90
44886;DHT22;36669;51.428;21.162;2023-01-01T09:47:54;16.60;99.90
44886;DHT22;36669;51.428;21.162;2023-01-01T09:50:33;16.70;99.90
44886;DHT22;36669;51.428;21.162;2023-01-01T09:53:26;16.80;99.90
44886;DHT22;36669;51.428;21.162;2023-01-01T09:55:59;16.90;99.90
44886;DHT22;36669;51.428;21.162;2023-01-01T09:58:34;16.90;99.90
44886;DHT22;36669;51.428;21.162;2023-01-01T10:15:52;17.50;99.90
44886;DHT22;36669;51.428;21.162;2023-01-01T10:18:24;17.70;99.90
44886;DHT22;36669;51.428;21.162;2023-01-01T10:21:08;17.60;99.90
44886;DHT22;36669;51.428;21.162;2023-01-01T10:23:47;17.60;99.90
44886;DHT22;36669;51.428;21.162;2023-01-01T10:26:19;17.50;99.90
44886;DHT22;36669;51.428;21.162;2023-01-01T10:29:03;17.40;99.90
44886;DHT22;36669;51.428;21.162;2023-01-01T10:31:36;17.50;99.90
44886;DHT22;36669;51.428;21.162;2023-01-01T10:34:26;17.50;99.90
44886;DHT22;36669;51.428;21.162;2023-01-01T10:36:59;17.50;99.90
44886;DHT22;36669;51.428;21.162;2023-01-01T10:39:27;17.50;99.90
44886;DHT22;36669;51.428;21.162;2023-01-01T10:41:53;17.50;99.90
44886;DHT22;36669;51.428;21.162;2023-01-01T10:44:33;17.60;99.90
44886;DHT22;36669;51.428;21.162;2023-01-01T10:47:27;17.60;99.90
44886;DHT22;36669;51.428;21.162;2023-01-01T10:50:04;17.70;99.90
44886;DHT22;36669;51.428;21.162;2023-01-01T10:52:39;17.70;99.90
44886;DHT22;36669;51.428;21.162;2023-01-01T10:55:24;17.60;99.90
44886;DHT22;36669;51.428;21.162;2023-01-01T10:57:56;17.60;99.90
44886;DHT22;36669;51.428;21.162;2023-01-01T11:00:27;17.60;99.90
44886;DHT22;36669;51.428;21.162;2023-01-01T11:03:17;17.50;99.90
44886;DHT22;36669;51.428;21.162;2023-01-01T11:06:04;17.50;99.90
44886;DHT22;36669;51.428;21.162;2023-01-01T11:08:34;17.50;99.90
44886;DHT22;36669;51.428;21.162;2023-01-01T11:11:03;17.60;99.90
44886;DHT22;36669;51.428;21.162;2023-01-01T11:13:33;17.60;99.90
44886;DHT22;36669;51.428;21.162;2023-01-01T11:16:02;17.60;99.90
44886;DHT22;36669;51.428;21.162;2023-01-01T11:18:35;17.60;99.90
44886;DHT22;36669;51.428;21.162;2023-01-01T11:21:04;17.80;99.90
44886;DHT22;36669;51.428;21.162;2023-01-01T11:23:38;17.80;99.90
44886;DHT22;36669;51.428;21.162;2023-01-01T11:26:39;17.80;99.90
44886;DHT22;36669;51.428;21.162;2023-01-01T11:29:30;18.10;99.90
44886;DHT22;36669;51.428;21.162;2023-01-01T11:31:59;18.40;99.70
44886;DHT22;36669;51.428;21.162;2023-01-01T11:34:40;18.60;99.00
44886;DHT22;36669;51.428;21.162;2023-01-01T11:37:29;18.80;97.60
44886;DHT22;36669;51.428;21.162;2023-01-01T11:40:14;19.00;96.90
44886;DHT22;36669;51.428;21.162;2023-01-01T11:42:48;19.20;96.90
44886;DHT22;36669;51.428;21.162;2023-01-01T11:45:18;19.20;96.40
44886;DHT22;36669;51.428;21.162;2023-01-01T11:47:58;19.20;95.30
44886;DHT22;36669;51.428;21.162;2023-01-01T11:50:29;19.10;95.30
44886;DHT22;36669;51.428;21.162;2023-01-01T11:56:15;19.00;95.10
44886;DHT22;36669;51.428;21.162;2023-01-01T11:59:01;18.90;95.20
44886;DHT22;36669;51.428;21.162;2023-01-01T12:04:43;19.10;95.10
44886;DHT22;36669;51.428;21.162;2023-01-01T12:07:23;19.20;94.90
44886;DHT22;36669;51.428;21.162;2023-01-01T12:10:29;19.30;94.10
44886;DHT22;36669;51.428;21.162;2023-01-01T12:13:36;19.50;93.90
44886;DHT22;36669;51.428;21.162;2023-01-01T12:21:30;19.60;93.10
44886;DHT22;36669;51.428;21.162;2023-01-01T12:24:03;19.40;92.60
44886;DHT22;36669;51.428;21.162;2023-01-01T12:27:04;19.20;92.90
44886;DHT22;36669;51.428;21.162;2023-01-01T12:45:23;18.90;93.60
44886;DHT22;36669;51.428;21.162;2023-01-01T12:51:32;18.90;94.00
44886;DHT22;36669;51.428;21.162;2023-01-01T12:59:30;18.40;94.50
44886;DHT22;36669;51.428;21.162;2023-01-01T13:01:59;18.40;94.50
44886;DHT22;36669;51.428;21.162;2023-01-01T13:04:27;18.50;94.70
44886;DHT22;36669;51.428;21.162;2023-01-01T13:07:07;18.40;95.00
44886;DHT22;36669;51.428;21.162;2023-01-01T13:09:38;18.20;95.20
44886;DHT22;36669;51.428;21.162;2023-01-01T13:12:11;18.40;95.10
44886;DHT22;36669;51.428;21.162;2023-01-01T13:14:40;18.20;95.50
44886;DHT22;36669;51.428;21.162;2023-01-01T13:17:26;18.20;95.60
44886;DHT22;36669;51.428;21.162;2023-01-01T13:20:13;18.50;95.50
44886;DHT22;36669;51.428;21.162;2023-01-01T13:22:41;18.50;95.40
44886;DHT22;36669;51.428;21.162;2023-01-01T13:33:29;18.10;96.50
44886;DHT22;36669;51.428;21.162;2023-01-01T13:36:49;18.00;96.60
44886;DHT22;36669;51.428;21.162;2023-01-01T13:39:07;18.30;96.60
44886;DHT22;36669;51.428;21.162;2023-01-01T13:41:45;18.20;96.30
44886;DHT22;36669;51.428;21.162;2023-01-01T13:44:21;18.30;96.30
44886;DHT22;36669;51.428;21.162;2023-01-01T13:55:54;18.80;96.90
44886;DHT22;36669;51.428;21.162;2023-01-01T14:01:48;18.40;97.70
44886;DHT22;36669;51.428;21.162;2023-01-01T14:09:50;17.60;99.70
44886;DHT22;36669;51.428;21.162;2023-01-01T14:12:19;17.40;99.90
44886;DHT22;36669;51.428;21.162;2023-01-01T14:14:46;17.10;99.90
44886;DHT22;36669;51.428;21.162;2023-01-01T14:17:15;16.90;99.90
44886;DHT22;36669;51.428;21.162;2023-01-01T14:19:42;16.60;99.90
44886;DHT22;36669;51.428;21.162;2023-01-01T14:22:13;16.30;99.90
44886;DHT22;36669;51.428;21.162;2023-01-01T14:24:45;16.20;99.90
44886;DHT22;36669;51.428;21.162;2023-01-01T14:27:19;16.00;99.90
44886;DHT22;36669;51.428;21.162;2023-01-01T14:29:48;16.00;99.90
44886;DHT22;36669;51.428;21.162;2023-01-01T14:32:23;15.90;99.90
44886;DHT22;36669;51.428;21.162;2023-01-01T14:35:14;15.90;99.90
44886;DHT22;36669;51.428;21.162;2023-01-01T14:37:40;15.80;99.90
44886;DHT22;36669;51.428;21.162;2023-01-01T14:40:32;15.80;99.90
44886;DHT22;36669;51.428;21.162;2023-01-01T14:43:05;15.70;99.90
44886;DHT22;36669;51.428;21.162;2023-01-01T14:45:35;15.60;99.90
44886;DHT22;36669;51.428;21.162;2023-01-01T14:48:15;15.50;99.90
44886;DHT22;36669;51.428;21.162;2023-01-01T14:50:46;15.50;99.90
44886;DHT22;36669;51.428;21.162;2023-01-01T14:53:16;15.40;99.90
44886;DHT22;36669;51.428;21.162;2023-01-01T14:55:48;15.30;99.90
44886;DHT22;36669;51.428;21.162;2023-01-01T14:58:22;15.10;99.90
44886;DHT22;36669;51.428;21.162;2023-01-01T15:01:22;15.10;99.90
44886;DHT22;36669;51.428;21.162;2023-01-01T15:03:59;15.00;99.90
44886;DHT22;36669;51.428;21.162;2023-01-01T15:06:28;15.00;99.90
44886;DHT22;36669;51.428;21.162;2023-01-01T15:08:55;14.90;99.90
44886;DHT22;36669;51.428;21.162;2023-01-01T15:11:24;14.90;99.90
44886;DHT22;36669;51.428;21.162;2023-01-01T15:14:01;14.90;99.90
44886;DHT22;36669;51.428;21.162;2023-01-01T15:16:30;14.90;99.90
44886;DHT22;36669;51.428;21.162;2023-01-01T15:18:58;14.80;99.90
44886;DHT22;36669;51.428;21.162;2023-01-01T15:21:40;14.80;99.90
44886;DHT22;36669;51.428;21.162;2023-01-01T15:24:14;14.70;99.90
44886;DHT22;36669;51.428;21.162;2023-01-01T15:27:00;14.70;99.90
44886;DHT22;36669;51.428;21.162;2023-01-01T15:29:29;14.70;99.90
44886;DHT22;36669;51.428;21.162;2023-01-01T15:32:22;14.60;99.90
44886;DHT22;36669;51.428;21.162;2023-01-01T15:34:59;14.50;99.90
44886;DHT22;36669;51.428;21.162;2023-01-01T15:37:54;14.50;99.90
44886;DHT22;36669;51.428;21.162;2023-01-01T15:45:38;14.30;99.90
44886;DHT22;36669;51.428;21.162;2023-01-01T15:48:24;14.30;99.90
44886;DHT22;36669;51.428;21.162;2023-01-01T15:51:02;14.20;99.90
44886;DHT22;36669;51.428;21.162;2023-01-01T15:53:58;14.10;99.90
44886;DHT22;36669;51.428;21.162;2023-01-01T15:56:28;14.10;99.90
44886;DHT22;36669;51.428;21.162;2023-01-01T15:59:03;14.10;99.90
44886;DHT22;36669;51.428;21.162;2023-01-01T16:01:31;14.10;99.90
44886;DHT22;36669;51.428;21.162;2023-01-01T16:04:22;14.00;99.90
44886;DHT22;36669;51.428;21.162;2023-01-01T16:06:53;14.00;99.90
44886;DHT22;36669;51.428;21.162;2023-01-01T16:09:22;14.00;99.90
44886;DHT22;36669;51.428;21.162;2023-01-01T16:11:55;13.90;99.90
44886;DHT22;36669;51.428;21.162;2023-01-01T16:14:24;13.90;99.90
44886;DHT22;36669;51.428;21.162;2023-01-01T16:16:55;13.80;99.90
44886;DHT22;36669;51.428;21.162;2023-01-01T16:19:28;13.80;99.90
44886;DHT22;36669;51.428;21.162;2023-01-01T16:21:57;13.70;99.90
44886;DHT22;36669;51.428;21.162;2023-01-01T16:24:26;13.70;99.90
44886;DHT22;36669;51.428;21.162;2023-01-01T16:26:54;13.70;99.90
44886;DHT22;36669;51.428;21.162;2023-01-01T16:29:20;13.70;99.90
44886;DHT22;36669;51.428;21.162;2023-01-01T16:31:47;13.70;99.90
44886;DHT22;36669;51.428;21.162;2023-01-01T16:34:15;13.60;99.90
44886;DHT22;36669;51.428;21.162;2023-01-01T16:36:43;13.60;99.90
44886;DHT22;36669;51.428;21.162;2023-01-01T16:39:11;13.60;99.90
44886;DHT22;36669;51.428;21.162;2023-01-01T16:41:42;13.70;99.90
44886;DHT22;36669;51.428;21.162;2023-01-01T16:44:15;13.60;99.90
44886;DHT22;36669;51.428;21.162;2023-01-01T16:46:42;13.60;99.90
44886;DHT22;36669;51.428;21.162;2023-01-01T16:49:09;13.60;99.90
44886;DHT22;36669;51.428;21.162;2023-01-01T16:51:36;13.60;99.90
44886;DHT22;36669;51.428;21.162;2023-01-01T16:54:05;13.50;99.90
44886;DHT22;36669;51.428;21.162;2023-01-01T16:56:32;13.60;99.90
44886;DHT22;36669;51.428;21.162;2023-01-01T16:58:59;13.50;99.90
44886;DHT22;36669;51.428;21.162;2023-01-01T17:01:25;13.40;99.90
44886;DHT22;36669;51.428;21.162;2023-01-01T17:03:51;13.40;99.90
44886;DHT22;36669;51.428;21.162;2023-01-01T17:06:17;13.40;99.90
44886;DHT22;36669;51.428;21.162;2023-01-01T17:08:45;13.30;99.90
44886;DHT22;36669;51.428;21.162;2023-01-01T17:11:14;13.30;99.90
44886;DHT22;36669;51.428;21.162;2023-01-01T17:13:46;13.20;99.90
44886;DHT22;36669;51.428;21.162;2023-01-01T17:16:14;13.20;99.90
44886;DHT22;36669;51.428;21.162;2023-01-01T17:18:52;13.10;99.90
44886;DHT22;36669;51.428;21.162;2023-01-01T17:21:18;13.10;99.90
44886;DHT22;36669;51.428;21.162;2023-01-01T17:23:46;13.10;99.90
44886;DHT22;36669;51.428;21.162;2023-01-01T17:26:19;13.00;99.90
44886;DHT22;36669;51.428;21.162;2023-01-01T17:28:48;13.00;99.90
44886;DHT22;36669;51.428;21.162;2023-01-01T17:31:16;13.00;99.90
44886;DHT22;36669;51.428;21.162;2023-01-01T17:33:46;13.00;99.90
44886;DHT22;36669;51.428;21.162;2023-01-01T17:36:12;13.00;99.90
44886;DHT22;36669;51.428;21.162;2023-01-01T17:38:39;12.90;99.90
44886;DHT22;36669;51.428;21.162;2023-01-01T17:41:10;13.00;99.90
44886;DHT22;36669;51.428;21.162;2023-01-01T17:43:39;13.00;99.90
44886;DHT22;36669;51.428;21.162;2023-01-01T17:48:43;12.90;99.90